Time;durP1;ratioP1;P1;durP2;ratioP2;P2;SDS_P1;SDS_P2;PMS_P1;PMS_P2;Temp;Humidity;BMP_temperature;BMP_pressure;BME280_temperature;BME280_humidity;BME280_pressure;Samples;Min_cycle;Max_cycle;Signal;HPM_P1;HPM_P2
2021/12/04 00:02:07;;;;;;;16.98;8.80;;;-0.50;99.90;;;;;;5048434;28;20025;-75
2021/12/04 00:04:36;;;;;;;;;;;-0.60;99.90;;;;;;5049909;28;20036;-74
2021/12/04 00:07:07;;;;;;;16.98;8.90;;;-0.60;99.90;;;;;;5049524;28;19919;-75
2021/12/04 00:09:34;;;;;;;19.25;9.10;;;-0.60;99.90;;;;;;5049506;28;20477;-76
2021/12/04 00:12:02;;;;;;;17.83;9.15;;;-0.60;99.90;;;;;;5049599;28;20573;-75
2021/12/04 00:14:35;;;;;;;15.85;8.50;;;-0.60;99.90;;;;;;5047570;28;20064;-75
2021/12/04 00:17:02;;;;;;;18.25;9.18;;;-0.60;99.90;;;;;;5049515;28;20029;-74
2021/12/04 00:19:29;;;;;;;18.73;10.02;;;-0.60;99.90;;;;;;5048075;28;20057;-76
2021/12/04 00:21:55;;;;;;;17.42;9.02;;;-0.60;99.90;;;;;;5061476;28;20108;-76
2021/12/04 00:24:22;;;;;;;15.30;8.80;;;-0.60;99.90;;;;;;5066217;28;20546;-75
2021/12/04 00:26:50;;;;;;;21.15;8.70;;;-0.60;99.90;;;;;;5049676;28;20056;-75
2021/12/04 00:29:17;;;;;;;16.67;9.23;;;-0.60;99.90;;;;;;5048320;28;20051;-75
2021/12/04 00:31:49;;;;;;;15.30;8.23;;;-0.60;99.90;;;;;;5048576;28;20025;-76
2021/12/04 00:34:17;;;;;;;15.80;8.55;;;-0.60;99.90;;;;;;5047816;28;20381;-76
2021/12/04 00:50:21;;;;;;;18.08;8.63;;;-0.60;99.90;;;;;;5059431;28;20128;-74
2021/12/04 00:52:46;;;;;;;14.82;8.20;;;-0.60;99.90;;;;;;5049371;28;20363;-77
2021/12/04 00:55:12;;;;;;;18.63;9.23;;;-0.60;99.90;;;;;;5056284;28;20040;-76
2021/12/04 00:57:38;;;;;;;19.80;9.13;;;-0.60;99.90;;;;;;5067467;28;20436;-76
2021/12/04 01:00:09;;;;;;;22.63;9.80;;;-0.70;99.90;;;;;;5068867;28;20091;-75
2021/12/04 01:02:34;;;;;;;18.08;8.32;;;-0.70;99.90;;;;;;5068987;28;20533;-75
2021/12/04 01:05:00;;;;;;;17.27;8.87;;;-0.70;99.90;;;;;;5061572;28;20088;-75
2021/12/04 01:07:26;;;;;;;17.90;8.50;;;-0.70;99.90;;;;;;5047534;28;20812;-74
2021/12/04 01:09:53;;;;;;;18.07;8.17;;;-0.70;99.90;;;;;;5053646;28;20737;-74
2021/12/04 01:12:18;;;;;;;15.75;7.45;;;-0.60;99.90;;;;;;5068892;28;20412;-74
2021/12/04 01:14:44;;;;;;;18.55;9.35;;;-0.60;99.90;;;;;;5063685;28;20037;-74
2021/12/04 01:17:11;;;;;;;16.52;9.13;;;-0.60;99.90;;;;;;5048753;28;20157;-75
2021/12/04 01:19:36;;;;;;;16.52;8.43;;;-0.60;99.90;;;;;;5051135;28;20064;-75
2021/12/04 01:22:04;;;;;;;17.58;8.30;;;-0.60;99.90;;;;;;5056463;28;20053;-75
2021/12/04 01:24:30;;;;;;;19.42;8.38;;;-0.60;99.90;;;;;;5052564;28;20388;-75
2021/12/04 01:26:56;;;;;;;15.63;8.03;;;-0.70;99.90;;;;;;5072462;28;20017;-74
2021/12/04 01:29:22;;;;;;;17.65;8.88;;;-0.70;99.90;;;;;;5071154;28;20269;-75
2021/12/04 01:31:48;;;;;;;20.58;8.57;;;-0.70;99.90;;;;;;5052407;28;20123;-76
2021/12/04 01:34:16;;;;;;;17.30;8.77;;;-0.80;99.90;;;;;;5053051;28;20029;-74
2021/12/04 01:36:42;;;;;;;17.80;8.95;;;-0.80;99.90;;;;;;5052151;28;20037;-74
2021/12/04 01:39:08;;;;;;;16.25;8.07;;;-0.80;99.90;;;;;;5054781;28;20054;-74
2021/12/04 01:41:35;;;;;;;15.70;8.13;;;-0.80;99.90;;;;;;5063981;28;20295;-74
2021/12/04 01:44:03;;;;;;;17.17;8.48;;;-0.80;99.90;;;;;;5068020;28;20063;-74
2021/12/04 01:46:29;;;;;;;20.05;8.85;;;-0.80;99.90;;;;;;5071171;28;20460;-74
2021/12/04 01:48:55;;;;;;;18.75;8.48;;;-0.80;99.90;;;;;;5072985;28;20052;-75
2021/12/04 01:51:21;;;;;;;17.85;8.63;;;-0.90;99.90;;;;;;5085684;28;20076;-75
2021/12/04 01:53:48;;;;;;;18.08;8.77;;;-0.90;99.90;;;;;;5072691;28;20048;-75
2021/12/04 01:56:14;;;;;;;16.13;8.65;;;-0.90;99.90;;;;;;5072084;28;20064;-75
2021/12/04 01:58:42;;;;;;;20.37;9.53;;;-0.90;99.90;;;;;;5071245;28;20075;-75
2021/12/04 02:01:09;;;;;;;18.17;9.55;;;-0.90;99.90;;;;;;5055374;28;20289;-74
2021/12/04 02:03:35;;;;;;;14.02;8.50;;;-0.90;99.90;;;;;;5052529;28;20086;-76
2021/12/04 02:06:01;;;;;;;16.52;8.68;;;-1.00;99.90;;;;;;5051227;28;20025;-74
2021/12/04 02:08:27;;;;;;;18.00;9.20;;;-1.00;99.90;;;;;;5050687;28;20435;-75
2021/12/04 02:10:56;;;;;;;20.92;8.48;;;-1.00;99.90;;;;;;5066626;28;20048;-75
2021/12/04 02:13:22;;;;;;;19.10;9.30;;;-1.00;99.90;;;;;;5052121;28;20053;-74
2021/12/04 02:15:49;;;;;;;17.33;9.55;;;-1.00;99.90;;;;;;5063759;28;20033;-74
2021/12/04 02:18:17;;;;;;;;;;;-1.00;99.90;;;;;;5071067;28;20438;-75
2021/12/04 02:20:43;;;;;;;18.05;8.52;;;-1.00;99.90;;;;;;5060494;28;20372;-75
2021/12/04 02:23:10;;;;;;;15.93;8.18;;;-1.00;99.90;;;;;;5071799;28;20028;-75
2021/12/04 02:25:37;;;;;;;16.60;9.50;;;-1.00;99.90;;;;;;5078228;28;20024;-75
2021/12/04 02:28:04;;;;;;;16.70;8.88;;;-1.00;99.90;;;;;;5071542;28;20040;-75
2021/12/04 02:30:32;;;;;;;21.05;8.07;;;-1.10;99.90;;;;;;5071350;28;20036;-75
2021/12/04 02:32:59;;;;;;;15.23;8.85;;;-1.00;99.90;;;;;;5070276;28;20059;-75
2021/12/04 02:35:26;;;;;;;17.23;8.93;;;-1.00;99.90;;;;;;5059887;28;20029;-76
2021/12/04 02:37:53;;;;;;;17.10;8.95;;;-1.00;99.90;;;;;;5049763;28;20083;-75
2021/12/04 02:40:22;;;;;;;16.75;8.23;;;-1.00;99.90;;;;;;5051595;28;20082;-75
2021/12/04 02:42:49;;;;;;;16.38;8.20;;;-1.00;99.90;;;;;;5066850;28;20055;-74
2021/12/04 02:45:15;;;;;;;;;;;-1.00;99.90;;;;;;5051518;28;20103;-75
2021/12/04 02:47:41;;;;;;;15.45;7.85;;;-1.00;99.90;;;;;;5051167;28;19963;-75
2021/12/04 02:50:10;;;;;;;15.48;8.13;;;-1.00;99.90;;;;;;5051679;28;20028;-75
2021/12/04 02:52:37;;;;;;;17.20;8.45;;;-1.00;99.90;;;;;;5050075;28;20093;-76
2021/12/04 02:55:04;;;;;;;14.70;7.97;;;-1.00;99.90;;;;;;5050888;28;20095;-73
2021/12/04 02:57:30;;;;;;;17.92;8.68;;;-1.00;99.90;;;;;;5049900;28;20025;-74
2021/12/04 02:59:56;;;;;;;17.08;8.63;;;-1.00;99.90;;;;;;5051367;28;20108;-75
2021/12/04 03:02:23;;;;;;;14.65;7.80;;;-1.00;99.90;;;;;;5051319;28;20113;-75
2021/12/04 03:04:54;;;;;;;14.98;8.70;;;-1.10;99.90;;;;;;5051000;28;20029;-75
2021/12/04 03:07:21;;;;;;;18.40;9.05;;;-1.00;99.90;;;;;;5050560;28;20108;-76
2021/12/04 03:09:47;;;;;;;21.90;8.57;;;-1.00;99.90;;;;;;5050992;28;20032;-75
2021/12/04 03:12:15;;;;;;;14.68;7.63;;;-1.00;99.90;;;;;;5051548;28;20411;-75
2021/12/04 03:14:41;;;;;;;16.77;8.85;;;-1.00;99.90;;;;;;5051045;28;20082;-75
2021/12/04 03:17:07;;;;;;;16.15;7.78;;;-1.00;99.90;;;;;;5065699;28;20056;-74
2021/12/04 03:19:34;;;;;;;16.15;7.82;;;-1.10;99.90;;;;;;5050712;28;20036;-75
2021/12/04 03:22:02;;;;;;;17.73;8.77;;;-1.00;99.90;;;;;;5061972;28;20021;-75
2021/12/04 03:24:29;;;;;;;18.02;8.50;;;-1.00;99.90;;;;;;5066761;28;20040;-76
2021/12/04 03:26:56;;;;;;;16.80;8.05;;;-1.10;99.90;;;;;;5049024;28;20086;-75
2021/12/04 03:29:24;;;;;;;17.38;9.38;;;-1.10;99.90;;;;;;5034332;28;20025;-74
2021/12/04 03:42:34;;;;;;;17.33;8.98;;;-1.20;99.90;;;;;;5050571;28;20095;-75
2021/12/04 03:45:00;;;;;;;21.48;10.27;;;-1.10;99.90;;;;;;5055637;28;20038;-73
2021/12/04 03:47:27;;;;;;;20.27;9.63;;;-1.10;99.90;;;;;;5069816;28;20024;-74
2021/12/04 03:49:53;;;;;;;16.55;8.95;;;-1.10;99.90;;;;;;5071450;28;20060;-75
2021/12/04 03:52:19;;;;;;;16.83;8.57;;;-1.10;99.90;;;;;;5085622;28;20519;-75
2021/12/04 03:54:44;;;;;;;18.73;9.40;;;-1.20;99.90;;;;;;5070091;28;20028;-74
2021/12/04 03:57:12;;;;;;;16.57;8.17;;;-1.20;99.90;;;;;;5068384;28;20265;-75
2021/12/04 03:59:45;;;;;;;19.42;9.93;;;-1.20;99.90;;;;;;5065563;28;20075;-75
2021/12/04 04:02:13;;;;;;;16.00;8.27;;;-1.20;99.90;;;;;;5065556;28;20107;-74
2021/12/04 04:04:40;;;;;;;16.90;8.45;;;-1.20;99.90;;;;;;5049762;28;20132;-75
2021/12/04 04:07:06;;;;;;;18.80;9.32;;;-1.20;99.90;;;;;;5049457;28;20028;-74
2021/12/04 04:09:33;;;;;;;16.40;8.68;;;-1.20;99.90;;;;;;5049463;28;20040;-73
2021/12/04 04:11:59;;;;;;;17.30;8.48;;;-1.30;99.90;;;;;;5048374;28;20037;-75
2021/12/04 04:14:25;;;;;;;19.38;8.73;;;-1.20;99.90;;;;;;5065060;28;20455;-75
2021/12/04 04:16:54;;;;;;;14.52;7.38;;;-1.30;99.90;;;;;;5049506;28;20033;-74
2021/12/04 04:19:20;;;;;;;12.35;7.03;;;-1.30;99.90;;;;;;5048237;28;20032;-73
2021/12/04 04:21:46;;;;;;;14.95;8.60;;;-1.30;99.90;;;;;;5058984;28;20127;-75
2021/12/04 04:24:14;;;;;;;11.80;7.20;;;-1.30;99.90;;;;;;5067992;28;20044;-74
2021/12/04 04:26:41;;;;;;;17.92;8.70;;;-1.30;99.90;;;;;;5048991;28;20029;-74
2021/12/04 04:29:08;;;;;;;21.63;8.70;;;-1.30;99.90;;;;;;5049493;28;20431;-75
2021/12/04 04:31:35;;;;;;;;;;;-1.30;99.90;;;;;;5049764;28;20029;-75
2021/12/04 04:34:05;;;;;;;17.63;8.32;;;-1.30;99.90;;;;;;5049579;28;19934;-74
2021/12/04 04:58:09;;;;;;;16.42;9.05;;;-1.40;99.90;;;;;;5049801;28;20044;-74
2021/12/04 05:00:52;;;;;;;;;;;-1.40;99.90;;;;;;5051828;28;20025;-75
2021/12/04 05:11:57;;;;;;;17.05;8.60;;;-1.40;99.90;;;;;;5053244;28;20392;-76
2021/12/04 05:14:21;;;;;;;15.20;8.20;;;-1.40;99.90;;;;;;5054603;28;20070;-75
2021/12/04 05:16:57;;;;;;;16.70;8.40;;;-1.40;99.90;;;;;;5073289;28;20028;-75
2021/12/04 05:19:26;;;;;;;17.92;9.43;;;-1.40;99.90;;;;;;5070762;28;20285;-75
2021/12/04 05:21:53;;;;;;;22.27;9.98;;;-1.40;99.90;;;;;;5064512;28;20039;-75
2021/12/04 05:24:21;;;;;;;18.25;10.27;;;-1.40;99.90;;;;;;5071703;28;20487;-75
2021/12/04 05:26:48;;;;;;;21.55;10.05;;;-1.40;99.90;;;;;;5051246;28;20033;-75
2021/12/04 05:29:14;;;;;;;22.30;9.40;;;-1.40;99.90;;;;;;5052560;28;20078;-75
2021/12/04 05:31:40;;;;;;;22.08;9.25;;;-1.50;99.90;;;;;;5051657;28;20140;-75
2021/12/04 05:34:05;;;;;;;19.20;9.55;;;-1.50;99.90;;;;;;5052947;28;20029;-75
2021/12/04 05:36:31;;;;;;;17.98;8.88;;;-1.50;99.90;;;;;;5052120;28;20499;-75
2021/12/04 05:38:57;;;;;;;19.90;9.10;;;-1.40;99.90;;;;;;5052517;28;20480;-75
2021/12/04 05:41:24;;;;;;;19.47;9.40;;;-1.40;99.90;;;;;;5070842;28;20025;-75
2021/12/04 05:43:50;;;;;;;19.95;10.00;;;-1.50;99.90;;;;;;5072541;28;20074;-75
2021/12/04 05:46:22;;;;;;;15.23;7.33;;;-1.40;99.90;;;;;;5070046;28;20066;-76
2021/12/04 05:48:55;;;;;;;20.10;9.20;;;-1.50;99.90;;;;;;5072361;28;20253;-75
2021/12/04 05:54:03;;;;;;;18.85;10.23;;;-1.40;99.90;;;;;;5052538;28;20032;-75
2021/12/04 05:56:31;;;;;;;20.08;9.90;;;-1.50;99.90;;;;;;5067529;28;20032;-76
2021/12/04 05:58:58;;;;;;;20.10;9.20;;;-1.50;99.90;;;;;;5051109;28;20032;-74
2021/12/04 06:01:25;;;;;;;19.15;9.88;;;-1.50;99.90;;;;;;5052275;28;20048;-76
2021/12/04 06:03:56;;;;;;;17.50;9.27;;;-1.50;99.90;;;;;;5051030;28;20025;-75
2021/12/04 06:06:22;;;;;;;20.80;9.55;;;-1.50;99.90;;;;;;5068465;28;20052;-75
2021/12/04 06:08:48;;;;;;;17.55;8.70;;;-1.50;99.90;;;;;;5072515;28;20054;-75
2021/12/04 06:11:14;;;;;;;19.85;10.05;;;-1.50;99.90;;;;;;5053820;28;20602;-75
2021/12/04 06:13:42;;;;;;;21.07;10.40;;;-1.50;99.90;;;;;;5067660;28;20132;-75
2021/12/04 06:16:08;;;;;;;17.98;9.93;;;-1.50;99.90;;;;;;5067689;28;20020;-77
2021/12/04 06:18:34;;;;;;;18.95;9.35;;;-1.50;99.90;;;;;;5070681;28;20024;-75
2021/12/04 06:23:45;;;;;;;18.67;9.57;;;-1.40;99.90;;;;;;5052015;28;20037;-75
2021/12/04 06:26:11;;;;;;;17.48;10.48;;;-1.40;99.90;;;;;;5050962;28;20033;-75
2021/12/04 06:28:37;;;;;;;17.83;9.52;;;-1.40;99.90;;;;;;5051764;28;20151;-76
2021/12/04 06:31:04;;;;;;;17.05;9.63;;;-1.40;99.90;;;;;;5062496;28;20024;-76
2021/12/04 06:33:29;;;;;;;;;;;-1.40;99.90;;;;;;5050810;28;20041;-76
2021/12/04 06:35:56;;;;;;;19.83;9.15;;;-1.30;99.90;;;;;;5065258;28;20275;-74
2021/12/04 06:38:22;;;;;;;;;;;-1.30;99.90;;;;;;5070790;28;20045;-74
2021/12/04 06:40:48;;;;;;;20.67;9.68;;;-1.20;99.90;;;;;;5071347;28;19908;-75
2021/12/04 06:43:16;;;;;;;17.98;9.15;;;-1.30;99.90;;;;;;5071910;28;20208;-75
2021/12/04 06:45:44;;;;;;;16.38;9.13;;;-1.30;99.90;;;;;;5058180;28;20021;-74
2021/12/04 06:48:13;;;;;;;17.85;10.07;;;-1.30;99.90;;;;;;5052262;28;20078;-75
2021/12/04 06:55:50;;;;;;;20.05;10.32;;;-0.20;99.90;;;;;;5050907;28;20052;-75
2021/12/04 06:58:16;;;;;;;17.40;8.52;;;0.90;99.90;;;;;;5049933;28;20033;-74
2021/12/04 07:00:43;;;;;;;21.15;9.32;;;1.00;99.90;;;;;;5050643;28;20029;-74
2021/12/04 07:03:09;;;;;;;21.85;9.32;;;1.10;99.90;;;;;;5051325;28;20082;-75
2021/12/04 07:05:34;;;;;;;18.08;9.00;;;2.10;99.90;;;;;;5057983;28;20029;-76
2021/12/04 07:08:00;;;;;;;19.90;9.23;;;3.20;99.90;;;;;;5050095;28;20025;-76
2021/12/04 07:10:26;;;;;;;15.05;7.78;;;3.90;99.90;;;;;;5060292;28;20043;-76
2021/12/04 07:12:52;;;;;;;15.70;8.63;;;4.60;99.90;;;;;;5070842;28;20489;-76
2021/12/04 07:15:18;;;;;;;19.02;9.43;;;5.20;99.90;;;;;;5061877;28;20068;-75
2021/12/04 07:17:44;;;;;;;15.02;9.20;;;5.80;99.90;;;;;;5051384;28;20060;-75
2021/12/04 07:20:11;;;;;;;16.97;8.70;;;5.70;99.90;;;;;;5050847;28;20071;-77
2021/12/04 07:22:37;;;;;;;14.85;8.60;;;5.10;99.90;;;;;;5068767;28;20458;-75
2021/12/04 07:25:06;;;;;;;16.92;9.23;;;5.10;99.90;;;;;;5062280;28;20117;-76
2021/12/04 07:27:32;;;;;;;17.55;10.23;;;5.20;99.90;;;;;;5049493;28;20017;-77
2021/12/04 07:29:59;;;;;;;17.73;9.53;;;5.60;99.90;;;;;;5056150;28;20484;-77
2021/12/04 07:32:25;;;;;;;;;;;6.00;99.90;;;;;;5070131;28;20277;-78
2021/12/04 07:34:51;;;;;;;15.23;9.25;;;6.30;99.90;;;;;;5069485;28;20019;-78
2021/12/04 07:37:17;;;;;;;20.10;11.23;;;5.80;99.90;;;;;;5069202;28;20446;-76
2021/12/04 07:39:43;;;;;;;17.33;9.77;;;5.20;99.90;;;;;;5065838;28;20051;-77
2021/12/04 07:42:09;;;;;;;20.57;9.50;;;5.20;99.90;;;;;;5049914;28;20540;-76
2021/12/04 07:44:42;;;;;;;24.87;9.70;;;5.20;99.90;;;;;;5050524;28;20028;-75
2021/12/04 07:47:07;;;;;;;18.67;10.73;;;5.20;99.90;;;;;;5050349;28;20025;-76
2021/12/04 07:49:35;;;;;;;18.53;9.57;;;4.30;99.90;;;;;;5050346;28;20044;-75
2021/12/04 07:52:01;;;;;;;18.73;10.52;;;4.10;99.90;;;;;;5050998;28;20415;-75
2021/12/04 07:54:27;;;;;;;22.60;10.70;;;4.60;99.90;;;;;;5053331;28;20102;-78
2021/12/04 07:56:52;;;;;;;20.63;10.70;;;5.00;99.90;;;;;;5069598;28;20021;-76
2021/12/04 07:59:18;;;;;;;20.07;10.50;;;5.00;99.90;;;;;;5070839;28;20037;-76
2021/12/04 08:01:44;;;;;;;20.37;10.33;;;5.00;99.90;;;;;;5070322;28;20107;-75
2021/12/04 08:04:09;;;;;;;19.87;11.00;;;5.00;99.90;;;;;;5069570;28;20025;-77
2021/12/04 08:06:36;;;;;;;21.70;11.20;;;4.90;99.90;;;;;;5068819;28;20028;-76
2021/12/04 08:09:02;;;;;;;20.00;10.52;;;4.80;99.90;;;;;;5070185;28;20614;-76
2021/12/04 08:11:28;;;;;;;18.27;10.02;;;4.20;99.90;;;;;;5050597;28;20059;-74
2021/12/04 08:13:54;;;;;;;20.77;10.63;;;4.00;99.90;;;;;;5050206;28;20441;-76
2021/12/04 08:16:24;;;;;;;18.85;10.68;;;3.50;99.90;;;;;;5049566;28;20361;-77
2021/12/04 08:18:52;;;;;;;22.27;11.05;;;3.30;99.90;;;;;;5050447;28;20035;-78
2021/12/04 08:21:19;;;;;;;20.17;11.48;;;3.40;99.90;;;;;;5066547;28;20017;-78
2021/12/04 08:23:45;;;;;;;17.73;10.60;;;3.60;99.90;;;;;;5070719;28;20043;-79
2021/12/04 08:26:10;;;;;;;22.08;11.38;;;3.80;99.90;;;;;;5068894;28;20445;-78
2021/12/04 08:28:37;;;;;;;20.20;10.87;;;3.70;99.90;;;;;;5068790;28;20083;-76
2021/12/04 08:31:02;;;;;;;20.77;10.68;;;3.70;99.90;;;;;;5080469;28;20434;-75
2021/12/04 08:33:28;;;;;;;18.07;10.03;;;3.80;99.90;;;;;;5085463;28;20040;-75
2021/12/04 08:35:55;;;;;;;16.90;9.95;;;3.70;99.90;;;;;;5068658;28;20017;-75
2021/12/04 08:38:21;;;;;;;19.40;10.25;;;3.90;99.90;;;;;;5069921;28;20029;-76
2021/12/04 08:40:47;;;;;;;19.67;10.77;;;4.10;99.90;;;;;;5055935;28;20040;-76
2021/12/04 08:43:13;;;;;;;20.20;10.57;;;4.10;99.90;;;;;;5050626;28;20492;-77
2021/12/04 08:45:40;;;;;;;19.83;10.32;;;4.30;99.90;;;;;;5060586;28;20043;-75
2021/12/04 08:48:05;;;;;;;;;;;4.10;99.90;;;;;;5069950;28;20472;-76
2021/12/04 08:50:33;;;;;;;20.55;11.18;;;3.90;99.90;;;;;;5058158;28;20046;-77
2021/12/04 08:53:00;;;;;;;20.80;11.90;;;4.10;99.90;;;;;;5065140;28;20442;-77
2021/12/04 08:55:27;;;;;;;17.55;11.10;;;4.40;99.90;;;;;;5058440;28;20059;-75
2021/12/04 08:57:53;;;;;;;20.58;11.15;;;4.70;99.90;;;;;;5068348;28;20025;-75
2021/12/04 09:00:25;;;;;;;22.95;11.65;;;4.90;99.90;;;;;;5069679;28;20364;-75
2021/12/04 09:02:53;;;;;;;17.45;10.75;;;5.10;99.90;;;;;;5069687;28;20020;-75
2021/12/04 09:05:20;;;;;;;23.63;11.35;;;5.20;99.90;;;;;;5059459;28;20404;-77
2021/12/04 09:07:46;;;;;;;19.75;10.48;;;5.30;99.90;;;;;;5048739;28;20480;-77
2021/12/04 09:10:13;;;;;;;20.98;11.55;;;5.50;99.90;;;;;;5050279;28;20053;-79
2021/12/04 09:12:40;;;;;;;20.00;11.55;;;5.40;99.90;;;;;;5049721;28;20064;-76
2021/12/04 09:15:08;;;;;;;19.55;10.77;;;5.60;99.90;;;;;;5052632;28;20029;-77
2021/12/04 09:17:34;;;;;;;19.33;10.00;;;5.70;99.90;;;;;;5047965;28;20549;-77
2021/12/04 09:20:00;;;;;;;18.60;10.63;;;5.70;99.90;;;;;;5056562;28;20036;-77
2021/12/04 09:22:30;;;;;;;19.43;11.83;;;5.70;99.90;;;;;;5053388;28;20335;-76
2021/12/04 09:24:59;;;;;;;20.30;11.65;;;5.70;99.90;;;;;;5054564;28;20028;-77
2021/12/04 10:00:27;;;;;;;24.58;11.77;;;5.80;99.90;;;;;;5055878;28;20048;-75
2021/12/04 10:17:28;;;;;;;18.25;11.30;;;6.40;99.90;;;;;;5052471;28;20082;-78
2021/12/04 10:22:20;;;;;;;22.25;12.80;;;6.60;99.90;;;;;;5063462;28;20021;-78
2021/12/04 10:25:04;;;;;;;21.90;12.73;;;6.60;99.90;;;;;;5072628;28;20036;-77
2021/12/04 10:33:17;;;;;;;22.30;11.57;;;6.70;99.90;;;;;;5072453;28;20094;-76
2021/12/04 10:35:45;;;;;;;23.75;12.10;;;6.60;99.90;;;;;;5079951;28;20021;-75
2021/12/04 10:38:19;;;;;;;21.20;11.50;;;6.50;99.90;;;;;;5072652;28;20033;-76
2021/12/04 10:40:48;;;;;;;20.58;11.73;;;6.50;99.90;;;;;;5071817;28;20025;-74
2021/12/04 10:43:26;;;;;;;15.27;10.48;;;6.20;99.90;;;;;;5070350;28;20530;-77
2021/12/04 10:45:56;;;;;;;19.88;10.82;;;6.00;99.90;;;;;;5057975;28;20111;-76
2021/12/04 10:48:26;;;;;;;18.95;10.15;;;5.90;99.90;;;;;;5052047;28;20099;-76
2021/12/04 10:53:48;;;;;;;16.30;10.15;;;5.70;99.90;;;;;;5051726;28;20456;-76
2021/12/04 10:59:42;;;;;;;18.00;9.98;;;5.60;99.90;;;;;;5067930;28;20112;-76
2021/12/04 11:42:58;;;;;;;18.20;8.65;;;7.80;99.90;;;;;;5051365;28;20025;-74
2021/12/04 11:45:29;;;;;;;16.95;8.63;;;8.20;99.90;;;;;;5050252;28;20028;-75
2021/12/04 11:47:58;;;;;;;12.55;7.22;;;8.50;99.90;;;;;;5049736;28;20025;-75
2021/12/04 11:50:27;;;;;;;16.27;8.63;;;8.60;99.90;;;;;;5065618;28;20374;-76
2021/12/04 11:52:58;;;;;;;16.02;8.25;;;8.70;99.90;;;;;;5048875;28;20094;-76
2021/12/04 11:55:27;;;;;;;16.60;8.55;;;8.60;99.90;;;;;;5049509;28;20040;-76
2021/12/04 11:57:54;;;;;;;15.07;8.38;;;8.50;99.90;;;;;;5050709;28;20033;-76
2021/12/04 12:00:28;;;;;;;;;;;8.30;99.90;;;;;;5050755;28;20491;-76
2021/12/04 12:03:28;;;;;;;15.30;7.53;;;7.40;99.90;;;;;;5048936;28;19916;-75
2021/12/04 12:05:53;;;;;;;17.50;8.40;;;5.90;99.90;;;;;;5055019;28;20041;-75
2021/12/04 12:08:26;;;;;;;16.43;8.73;;;5.10;99.90;;;;;;5050652;28;20674;-75
2021/12/04 12:10:57;;;;;;;16.13;8.75;;;4.50;99.90;;;;;;5061412;28;20698;-75
2021/12/04 12:13:34;;;;;;;19.23;9.30;;;3.80;99.90;;;;;;5070234;28;20044;-76
2021/12/04 12:16:03;;;;;;;17.95;10.40;;;3.50;99.90;;;;;;5055191;28;20043;-77
2021/12/04 12:18:29;;;;;;;19.50;9.82;;;3.40;99.90;;;;;;5050751;28;20037;-75
2021/12/04 12:20:59;;;;;;;17.58;9.38;;;3.40;99.90;;;;;;5062641;28;20032;-75
2021/12/04 12:23:31;;;;;;;16.70;9.02;;;3.40;99.90;;;;;;5070695;28;20092;-74
2021/12/04 12:26:15;;;;;;;18.42;10.05;;;3.50;99.90;;;;;;5073114;28;20550;-74
2021/12/04 12:37:27;;;;;;;14.32;9.48;;;3.10;99.90;;;;;;5049540;28;20341;-76
2021/12/04 12:40:02;;;;;;;18.10;8.98;;;3.00;99.90;;;;;;5070447;28;20036;-75
2021/12/04 12:42:36;;;;;;;17.08;9.57;;;2.90;99.90;;;;;;5069665;28;20424;-77
2021/12/04 12:45:19;;;;;;;15.70;9.20;;;2.90;99.90;;;;;;5077707;28;20170;-75
2021/12/04 12:47:54;;;;;;;17.02;9.98;;;3.00;99.90;;;;;;5048544;28;20037;-75
2021/12/04 12:50:27;;;;;;;17.55;10.25;;;3.00;99.90;;;;;;5058713;28;20073;-75
2021/12/04 12:53:10;;;;;;;15.50;8.52;;;3.00;99.90;;;;;;5069779;28;20310;-75
2021/12/04 12:55:37;;;;;;;16.95;8.40;;;2.90;99.90;;;;;;5067075;28;20032;-75
2021/12/04 13:13:32;;;;;;;17.70;8.73;;;3.00;99.90;;;;;;5069406;28;20071;-77
2021/12/04 13:16:04;;;;;;;19.77;10.10;;;2.90;99.90;;;;;;5068839;28;20017;-76
2021/12/04 13:18:35;;;;;;;15.93;9.32;;;2.80;99.90;;;;;;5069025;28;20519;-75
2021/12/04 13:21:09;;;;;;;20.00;9.68;;;2.70;99.90;;;;;;5059514;28;20019;-75
2021/12/04 13:23:37;;;;;;;17.38;9.75;;;2.70;99.90;;;;;;5073323;28;20387;-76
2021/12/04 13:26:12;;;;;;;25.02;10.48;;;2.70;99.90;;;;;;5071070;28;20025;-77
2021/12/04 13:28:42;;;;;;;15.10;9.10;;;2.70;99.90;;;;;;5071628;28;20064;-75
2021/12/04 13:31:08;;;;;;;17.15;9.00;;;2.60;99.90;;;;;;5072756;28;20032;-75
2021/12/04 13:33:36;;;;;;;17.08;10.10;;;2.50;99.90;;;;;;5073388;28;20055;-75
2021/12/04 13:36:14;;;;;;;18.33;9.82;;;2.50;99.90;;;;;;5056865;28;20021;-75
2021/12/04 13:38:39;;;;;;;;;;;2.50;99.90;;;;;;5051845;28;20083;-76
2021/12/04 13:41:05;;;;;;;17.40;9.10;;;2.40;99.90;;;;;;5052458;28;20303;-76
2021/12/04 13:43:31;;;;;;;21.52;10.68;;;2.30;99.90;;;;;;5051730;28;20021;-77
2021/12/04 13:46:03;;;;;;;18.03;9.97;;;2.30;99.90;;;;;;5065570;28;20086;-74
2021/12/04 13:48:31;;;;;;;20.40;9.73;;;2.30;99.90;;;;;;5071663;28;20028;-75
2021/12/04 13:50:59;;;;;;;18.50;10.30;;;2.20;99.90;;;;;;5057833;28;20051;-75
2021/12/04 13:53:30;;;;;;;19.88;9.85;;;2.30;99.90;;;;;;5053108;28;20029;-76
2021/12/04 13:56:00;;;;;;;16.75;9.38;;;2.30;99.90;;;;;;5051618;28;20037;-75
2021/12/04 13:58:26;;;;;;;15.93;9.25;;;2.30;99.90;;;;;;5052558;28;20107;-75
2021/12/04 14:00:52;;;;;;;17.35;10.10;;;2.20;99.90;;;;;;5052143;28;20461;-75
2021/12/04 14:03:27;;;;;;;19.35;9.48;;;2.10;99.90;;;;;;5051390;28;20033;-74
2021/12/04 14:05:53;;;;;;;22.25;10.73;;;2.20;99.90;;;;;;5064038;28;20120;-76
2021/12/04 14:08:20;;;;;;;19.77;10.35;;;2.10;99.90;;;;;;5072375;28;20028;-75
2021/12/04 14:10:48;;;;;;;17.65;10.10;;;2.10;99.90;;;;;;5087797;28;20060;-74
2021/12/04 14:13:19;;;;;;;21.23;10.82;;;2.10;99.90;;;;;;5070388;28;20135;-76
2021/12/04 14:15:52;;;;;;;20.50;10.25;;;2.00;99.90;;;;;;5058653;28;20428;-75
2021/12/04 14:18:21;;;;;;;19.55;10.38;;;2.10;99.90;;;;;;5052540;28;20040;-75
2021/12/04 14:20:53;;;;;;;23.77;10.65;;;2.00;99.90;;;;;;5060957;28;20045;-75
2021/12/04 14:23:19;;;;;;;22.75;11.52;;;2.00;99.90;;;;;;5052454;28;20499;-74
2021/12/04 14:25:46;;;;;;;26.90;11.90;;;2.00;99.90;;;;;;5051221;28;20516;-75
2021/12/04 14:28:16;;;;;;;21.60;12.32;;;2.00;99.90;;;;;;5052204;28;20032;-75
2021/12/04 14:30:48;;;;;;;23.85;12.82;;;2.00;99.90;;;;;;5051791;28;20083;-75
2021/12/04 14:33:18;;;;;;;23.33;12.20;;;1.90;99.90;;;;;;5049633;28;20064;-75
2021/12/04 14:35:46;;;;;;;23.73;12.88;;;1.90;99.90;;;;;;5050778;28;20033;-76
2021/12/04 14:38:15;;;;;;;22.00;13.25;;;1.90;99.90;;;;;;5051712;28;20112;-75
2021/12/04 14:40:50;;;;;;;25.70;14.77;;;1.90;99.90;;;;;;5051477;28;20395;-75
2021/12/04 14:43:24;;;;;;;28.50;13.35;;;1.80;99.90;;;;;;5050432;28;20032;-76
2021/12/04 14:45:55;;;;;;;25.73;14.45;;;1.80;99.90;;;;;;5049726;28;20584;-74
2021/12/04 14:48:36;;;;;;;23.90;13.57;;;1.80;99.90;;;;;;5051860;28;20409;-75
2021/12/04 14:51:08;;;;;;;30.30;15.30;;;1.70;99.90;;;;;;5051570;28;20037;-76
2021/12/04 14:53:38;;;;;;;27.60;13.85;;;1.70;99.90;;;;;;5051629;28;20155;-75
2021/12/04 14:56:07;;;;;;;29.17;14.93;;;1.70;99.90;;;;;;5050521;28;20553;-76
2021/12/04 14:58:33;;;;;;;30.15;15.90;;;1.60;99.90;;;;;;5049842;28;20515;-75
2021/12/04 15:01:06;;;;;;;27.45;14.68;;;1.60;99.90;;;;;;5050862;28;20514;-75
2021/12/04 15:03:37;;;;;;;26.23;15.25;;;1.60;99.90;;;;;;5050708;28;20044;-75
2021/12/04 15:06:06;;;;;;;24.88;14.52;;;1.60;99.90;;;;;;5066620;28;20283;-75
2021/12/04 15:08:43;;;;;;;24.92;13.80;;;1.60;99.90;;;;;;5050289;28;20041;-74
2021/12/04 15:11:14;;;;;;;26.88;13.77;;;1.50;99.90;;;;;;5050799;28;20055;-74
2021/12/04 15:13:52;;;;;;;27.35;14.20;;;1.50;99.90;;;;;;5051167;28;20098;-75
2021/12/04 15:16:25;;;;;;;26.50;14.25;;;1.50;99.90;;;;;;5080789;28;20111;-75
2021/12/04 15:18:51;;;;;;;26.38;13.15;;;1.50;99.90;;;;;;5086561;28;20408;-75
2021/12/04 15:21:19;;;;;;;28.87;16.93;;;1.40;99.90;;;;;;5062913;28;20036;-77
2021/12/04 15:23:52;;;;;;;29.50;15.55;;;1.40;99.90;;;;;;5051207;28;20025;-75
2021/12/04 15:26:20;;;;;;;28.55;14.38;;;1.40;99.90;;;;;;5050622;28;20017;-75
2021/12/04 15:28:50;;;;;;;28.60;15.32;;;1.40;99.90;;;;;;5051034;28;20029;-76
2021/12/04 15:31:18;;;;;;;29.10;16.10;;;1.30;99.90;;;;;;5050578;28;20079;-76
2021/12/04 15:33:48;;;;;;;26.73;15.55;;;1.30;99.90;;;;;;5049436;28;20044;-75
2021/12/04 15:36:49;;;;;;;27.58;14.70;;;1.30;99.90;;;;;;5065428;28;20466;-75
2021/12/04 15:39:30;;;;;;;28.02;14.43;;;1.20;99.90;;;;;;5074053;28;20425;-75
2021/12/04 15:55:22;;;;;;;28.42;15.18;;;1.00;99.90;;;;;;5049962;28;20063;-76
2021/12/04 15:58:05;;;;;;;24.33;13.95;;;1.00;99.90;;;;;;5048917;28;20024;-75
2021/12/04 16:00:33;;;;;;;23.40;14.20;;;1.00;99.90;;;;;;5065568;28;20059;-77
2021/12/04 16:03:04;;;;;;;27.42;15.35;;;0.90;99.90;;;;;;5048467;28;20362;-75
2021/12/04 16:05:33;;;;;;;27.23;14.10;;;0.90;99.90;;;;;;5049768;28;20055;-74
2021/12/04 16:08:13;;;;;;;26.58;14.95;;;0.90;99.90;;;;;;5050539;28;20052;-75
2021/12/04 16:10:43;;;;;;;29.50;15.70;;;0.90;99.90;;;;;;5057237;28;20083;-75
2021/12/04 16:13:11;;;;;;;26.23;14.82;;;0.90;99.90;;;;;;5049968;28;20056;-75